Time;durP1;ratioP1;P1;durP2;ratioP2;P2;SDS_P1;SDS_P2;PMS_P1;PMS_P2;Temp;Humidity;BMP_temperature;BMP_pressure;BME280_temperature;BME280_humidity;BME280_pressure;Samples;Min_cycle;Max_cycle;Signal;HPM_P1;HPM_P2
2022/07/22 00:01:46;;;;;;;23.65;15.85;;;;;;;;;;4972597;28;20038;-75
2022/07/22 00:04:12;;;;;;;23.58;16.63;;;;;;;;;;4972459;28;20451;-74
2022/07/22 00:06:37;;;;;;;25.55;16.90;;;;;;;;;;4972347;28;20526;-75
2022/07/22 00:09:03;;;;;;;23.77;16.15;;;;;;;;;;4972421;28;20070;-75
2022/07/22 00:11:29;;;;;;;23.60;16.13;;;;;;;;;;4971913;28;20510;-76
2022/07/22 00:13:55;;;;;;;22.30;16.17;;;;;;;;;;4986505;28;20023;-75
2022/07/22 00:16:20;;;;;;;23.02;15.57;;;;;;;;;;4971058;28;20022;-75
2022/07/22 00:18:46;;;;;;;24.40;15.00;;;;;;;;;;4972120;28;20049;-75
2022/07/22 00:21:11;;;;;;;22.63;16.05;;;;;;;;;;4972373;28;20034;-75
2022/07/22 00:23:37;;;;;;;20.77;15.68;;;;;;;;;;4972375;28;20022;-75
2022/07/22 00:26:02;;;;;;;21.40;15.50;;;;;;;;;;4972194;28;20113;-75
2022/07/22 00:28:28;;;;;;;20.98;15.52;;;;;;;;;;4970773;28;20557;-75
2022/07/22 00:30:53;;;;;;;22.02;15.32;;;;;;;;;;4970919;28;20081;-75
2022/07/22 00:33:19;;;;;;;21.25;15.07;;;;;;;;;;4974446;28;20031;-75
2022/07/22 00:35:44;;;;;;;25.45;17.45;;;;;;;;;;4975625;28;20031;-75
2022/07/22 00:38:10;;;;;;;22.95;15.40;;;;;;;;;;4976337;28;20031;-76
2022/07/22 00:40:35;;;;;;;23.33;14.48;;;;;;;;;;4975764;28;20498;-75
2022/07/22 00:43:01;;;;;;;19.42;15.27;;;;;;;;;;4974464;28;20383;-76
2022/07/22 00:45:27;;;;;;;18.98;15.20;;;;;;;;;;4974322;28;20105;-75
2022/07/22 00:47:53;;;;;;;23.02;15.80;;;;;;;;;;4974145;28;20049;-75
2022/07/22 00:50:19;;;;;;;24.83;15.70;;;;;;;;;;4973488;28;20031;-75
2022/07/22 00:52:45;;;;;;;21.27;15.40;;;;;;;;;;4973839;28;20423;-75
2022/07/22 00:55:11;;;;;;;22.65;14.63;;;;;;;;;;4973605;28;20042;-76
2022/07/22 00:57:36;;;;;;;20.35;15.13;;;;;;;;;;4974657;28;20027;-75
2022/07/22 01:00:06;;;;;;;21.55;15.45;;;;;;;;;;4974280;28;20037;-75
2022/07/22 01:02:31;;;;;;;20.90;15.23;;;;;;;;;;4974748;28;20049;-75
2022/07/22 01:04:57;;;;;;;20.70;14.77;;;;;;;;;;4973918;28;20023;-75
2022/07/22 01:07:22;;;;;;;25.05;14.65;;;;;;;;;;4975064;28;20030;-75
2022/07/22 01:09:48;;;;;;;23.63;15.30;;;;;;;;;;4974904;28;20476;-75
2022/07/22 01:12:14;;;;;;;27.58;16.30;;;;;;;;;;4990194;28;20041;-75
2022/07/22 01:14:39;;;;;;;26.48;15.55;;;;;;;;;;4975066;28;20101;-75
2022/07/22 01:17:05;;;;;;;19.67;15.13;;;;;;;;;;4973775;28;20081;-75
2022/07/22 01:19:30;;;;;;;23.30;16.25;;;;;;;;;;4974695;28;20030;-76
2022/07/22 01:21:56;;;;;;;26.13;16.73;;;;;;;;;;4972416;28;20066;-76
2022/07/22 01:24:21;;;;;;;23.48;15.13;;;;;;;;;;4972737;28;20022;-75
2022/07/22 01:26:47;;;;;;;24.75;15.32;;;;;;;;;;4974226;28;20562;-75
2022/07/22 01:29:12;;;;;;;29.75;15.90;;;;;;;;;;4974158;28;20069;-74
2022/07/22 01:31:38;;;;;;;21.70;15.48;;;;;;;;;;4972342;28;20027;-76
2022/07/22 01:34:03;;;;;;;26.38;14.80;;;;;;;;;;4972602;28;20487;-76
2022/07/22 01:36:29;;;;;;;20.58;14.48;;;;;;;;;;4973494;28;20026;-75
2022/07/22 01:38:55;;;;;;;22.30;14.93;;;;;;;;;;4973989;28;20061;-76
2022/07/22 01:41:20;;;;;;;22.38;15.48;;;;;;;;;;4973964;28;20114;-76
2022/07/22 01:43:46;;;;;;;25.13;15.52;;;;;;;;;;4987698;28;20029;-75
2022/07/22 01:46:13;;;;;;;23.80;15.23;;;;;;;;;;4973367;28;20062;-74
2022/07/22 01:48:40;;;;;;;19.73;14.93;;;;;;;;;;4973558;28;20027;-74
2022/07/22 01:51:05;;;;;;;29.90;16.15;;;;;;;;;;4971789;28;20634;-75
2022/07/22 01:53:31;;;;;;;21.48;15.35;;;;;;;;;;4972017;28;20034;-77
2022/07/22 01:55:56;;;;;;;25.15;15.82;;;;;;;;;;4972257;28;20368;-75
2022/07/22 01:58:22;;;;;;;26.33;15.65;;;;;;;;;;4974107;28;20113;-75
2022/07/22 02:00:48;;;;;;;21.25;16.60;;;;;;;;;;4973357;28;20065;-75
2022/07/22 02:03:14;;;;;;;19.90;14.88;;;;;;;;;;4972337;28;20027;-75
2022/07/22 02:05:39;;;;;;;23.55;16.25;;;;;;;;;;4972457;28;20038;-75
2022/07/22 02:08:08;;;;;;;28.42;16.10;;;;;;;;;;4972643;28;20027;-75
2022/07/22 02:10:34;;;;;;;25.00;15.23;;;;;;;;;;4973569;28;20398;-75
2022/07/22 02:13:00;;;;;;;21.05;14.55;;;;;;;;;;4973034;28;20057;-75
2022/07/22 02:15:27;;;;;;;22.35;15.57;;;;;;;;;;4972225;28;20018;-75
2022/07/22 02:17:53;;;;;;;23.98;14.90;;;;;;;;;;4973383;28;20054;-75
2022/07/22 02:20:20;;;;;;;21.52;15.65;;;;;;;;;;4973386;28;20046;-76
2022/07/22 02:22:45;;;;;;;20.00;14.85;;;;;;;;;;4987229;28;20022;-75
2022/07/22 02:25:11;;;;;;;25.30;16.02;;;;;;;;;;4972991;28;20034;-75
2022/07/22 02:27:37;;;;;;;20.80;15.38;;;;;;;;;;4971268;28;20034;-75
2022/07/22 02:30:04;;;;;;;23.70;16.02;;;;;;;;;;4971484;28;20058;-76
2022/07/22 02:32:30;;;;;;;28.33;16.45;;;;;;;;;;4971808;28;20031;-76
2022/07/22 02:34:56;;;;;;;25.40;15.45;;;;;;;;;;4972328;28;20479;-76
2022/07/22 02:37:21;;;;;;;22.67;15.90;;;;;;;;;;4972045;28;20517;-75
2022/07/22 02:39:47;;;;;;;25.73;16.27;;;;;;;;;;4972003;28;20426;-76
2022/07/22 02:42:12;;;;;;;21.75;15.65;;;;;;;;;;4971951;28;20026;-75
2022/07/22 02:44:38;;;;;;;20.30;15.70;;;;;;;;;;4972026;28;20094;-75
2022/07/22 02:47:04;;;;;;;20.70;15.00;;;;;;;;;;4973329;28;20049;-74
2022/07/22 02:49:29;;;;;;;23.48;16.58;;;;;;;;;;4973661;28;20486;-76
2022/07/22 02:51:54;;;;;;;22.27;16.05;;;;;;;;;;4971296;28;20050;-76
2022/07/22 02:54:20;;;;;;;31.27;18.00;;;;;;;;;;4972896;28;20502;-75
2022/07/22 02:56:45;;;;;;;21.88;15.57;;;;;;;;;;4970719;28;20038;-76
2022/07/22 02:59:11;;;;;;;25.83;15.80;;;;;;;;;;4972437;28;20023;-74
2022/07/22 03:01:36;;;;;;;26.63;16.83;;;;;;;;;;4972646;28;20037;-74
2022/07/22 03:04:02;;;;;;;28.98;16.45;;;;;;;;;;4970658;28;20038;-74
2022/07/22 03:06:27;;;;;;;26.02;16.70;;;;;;;;;;4971087;28;20110;-74
2022/07/22 03:08:53;;;;;;;25.10;16.42;;;;;;;;;;4972531;28;20035;-75
2022/07/22 03:11:18;;;;;;;24.63;15.77;;;;;;;;;;4971100;28;20039;-75
2022/07/22 03:13:44;;;;;;;24.38;15.57;;;;;;;;;;4970953;28;20467;-75
2022/07/22 03:16:09;;;;;;;32.80;17.33;;;;;;;;;;4971406;28;20030;-74
2022/07/22 03:18:35;;;;;;;22.02;15.93;;;;;;;;;;4970534;28;20527;-75
2022/07/22 03:21:00;;;;;;;23.65;15.35;;;;;;;;;;4972183;28;20030;-74
2022/07/22 03:23:27;;;;;;;33.35;16.98;;;;;;;;;;4972422;28;20142;-74
2022/07/22 03:25:55;;;;;;;23.17;16.17;;;;;;;;;;4970651;28;20125;-74
2022/07/22 03:28:21;;;;;;;29.50;17.65;;;;;;;;;;4971494;28;20033;-74
2022/07/22 03:30:46;;;;;;;23.65;15.75;;;;;;;;;;4971752;28;20030;-75
2022/07/22 03:33:12;;;;;;;24.85;16.25;;;;;;;;;;4971270;28;20035;-74
2022/07/22 03:35:37;;;;;;;22.95;17.20;;;;;;;;;;4971862;28;20089;-74
2022/07/22 03:38:03;;;;;;;27.13;17.55;;;;;;;;;;4972097;28;20896;-75
2022/07/22 03:40:29;;;;;;;30.42;17.80;;;;;;;;;;4970964;28;20031;-74
2022/07/22 03:42:54;;;;;;;29.70;17.52;;;;;;;;;;4970576;28;20134;-74
2022/07/22 03:45:20;;;;;;;24.50;16.40;;;;;;;;;;4971935;28;20125;-75
2022/07/22 03:47:46;;;;;;;26.27;17.13;;;;;;;;;;4970445;28;20081;-74
2022/07/22 03:50:11;;;;;;;29.10;17.58;;;;;;;;;;4971886;28;20383;-75
2022/07/22 03:52:37;;;;;;;27.05;17.13;;;;;;;;;;4969923;28;20454;-74
2022/07/22 03:55:04;;;;;;;25.50;16.08;;;;;;;;;;4971689;28;20038;-74
2022/07/22 03:57:29;;;;;;;29.17;16.92;;;;;;;;;;4971379;28;20419;-74
2022/07/22 03:59:55;;;;;;;25.95;16.73;;;;;;;;;;4971926;28;20065;-75
2022/07/22 04:02:20;;;;;;;29.73;17.08;;;;;;;;;;4970247;28;20037;-75
2022/07/22 04:04:46;;;;;;;22.90;16.25;;;;;;;;;;4971049;28;20030;-75
2022/07/22 04:07:11;;;;;;;25.02;16.23;;;;;;;;;;4971292;28;20041;-74
2022/07/22 04:09:38;;;;;;;22.95;15.50;;;;;;;;;;4974403;28;20049;-74
2022/07/22 04:12:04;;;;;;;27.80;16.80;;;;;;;;;;4974326;28;20169;-73
2022/07/22 04:14:30;;;;;;;24.33;16.13;;;;;;;;;;4974174;28;20027;-75
2022/07/22 04:16:55;;;;;;;27.05;16.88;;;;;;;;;;4973889;28;20030;-75
2022/07/22 04:19:21;;;;;;;30.60;17.85;;;;;;;;;;4974282;28;20050;-74
2022/07/22 04:21:46;;;;;;;26.73;16.23;;;;;;;;;;4974055;28;20023;-75
2022/07/22 04:24:12;;;;;;;25.15;16.80;;;;;;;;;;4975545;28;20497;-74
2022/07/22 04:26:37;;;;;;;31.25;16.38;;;;;;;;;;4973876;28;20050;-75
2022/07/22 04:29:06;;;;;;;27.42;17.15;;;;;;;;;;4989762;28;20034;-75
2022/07/22 04:31:32;;;;;;;23.50;16.05;;;;;;;;;;4975059;28;20035;-75
2022/07/22 04:33:58;;;;;;;31.73;16.80;;;;;;;;;;4973570;28;20031;-74
2022/07/22 04:36:24;;;;;;;27.85;16.27;;;;;;;;;;4974163;28;20107;-75
2022/07/22 04:38:49;;;;;;;24.85;15.52;;;;;;;;;;4975379;28;20390;-75
2022/07/22 04:41:15;;;;;;;33.30;16.95;;;;;;;;;;4975611;28;20042;-75
2022/07/22 04:43:41;;;;;;;21.83;14.82;;;;;;;;;;4974540;28;20042;-74
2022/07/22 04:46:06;;;;;;;29.83;16.30;;;;;;;;;;4974910;28;20050;-74
2022/07/22 04:48:32;;;;;;;34.35;17.65;;;;;;;;;;4974767;28;20027;-74
2022/07/22 04:51:01;;;;;;;24.05;16.88;;;;;;;;;;4973067;28;20133;-74
2022/07/22 04:53:27;;;;;;;23.67;15.60;;;;;;;;;;4974510;28;20056;-75
2022/07/22 04:55:53;;;;;;;22.48;16.15;;;;;;;;;;4973163;28;20033;-74
2022/07/22 04:58:18;;;;;;;21.05;15.63;;;;;;;;;;4974901;28;20026;-76
2022/07/22 05:00:44;;;;;;;24.13;17.30;;;;;;;;;;4973416;28;20030;-76
2022/07/22 05:03:09;;;;;;;26.48;15.80;;;;;;;;;;4974988;28;20018;-75
2022/07/22 05:05:35;;;;;;;23.05;15.88;;;;;;;;;;4973751;28;20090;-75
2022/07/22 05:08:01;;;;;;;23.73;16.33;;;;;;;;;;4974532;28;20539;-74
2022/07/22 05:10:27;;;;;;;23.23;15.82;;;;;;;;;;4973087;28;20031;-75
2022/07/22 05:12:52;;;;;;;24.98;16.77;;;;;;;;;;4973085;28;20502;-75
2022/07/22 05:15:18;;;;;;;21.83;15.52;;;;;;;;;;4976166;28;20033;-74
2022/07/22 05:17:44;;;;;;;23.45;15.57;;;;;;;;;;4973471;28;20026;-74
2022/07/22 05:20:10;;;;;;;24.77;15.25;;;;;;;;;;4971894;28;20023;-74
2022/07/22 05:22:36;;;;;;;24.35;16.50;;;;;;;;;;4974499;28;20181;-75
2022/07/22 05:25:01;;;;;;;31.20;15.20;;;;;;;;;;4975707;28;20117;-74
2022/07/22 05:27:27;;;;;;;23.40;15.88;;;;;;;;;;4971695;28;20030;-75
2022/07/22 05:29:52;;;;;;;24.27;17.05;;;;;;;;;;4974168;28;20031;-75
2022/07/22 05:32:18;;;;;;;25.92;16.55;;;;;;;;;;4972253;28;20038;-74
2022/07/22 05:34:43;;;;;;;23.30;16.85;;;;;;;;;;4972077;28;20035;-74
2022/07/22 05:37:09;;;;;;;26.55;15.23;;;;;;;;;;4972502;28;20425;-73
2022/07/22 05:39:34;;;;;;;27.02;17.08;;;;;;;;;;4973623;28;20542;-75
2022/07/22 05:42:00;;;;;;;25.65;16.88;;;;;;;;;;4971241;28;20041;-74
2022/07/22 05:44:25;;;;;;;25.52;16.75;;;;;;;;;;4972320;28;20133;-74
2022/07/22 05:46:51;;;;;;;28.55;16.50;;;;;;;;;;4971958;28;20069;-76
2022/07/22 05:49:17;;;;;;;28.73;17.20;;;;;;;;;;4972319;28;20034;-74
2022/07/22 05:51:42;;;;;;;23.98;16.45;;;;;;;;;;4972038;28;20109;-75
2022/07/22 05:54:08;;;;;;;26.98;16.10;;;;;;;;;;4972523;28;20030;-76
2022/07/22 05:56:33;;;;;;;23.70;16.13;;;;;;;;;;4972806;28;20045;-76
2022/07/22 05:59:00;;;;;;;22.60;15.98;;;;;;;;;;4973537;28;20474;-78
2022/07/22 06:01:26;;;;;;;23.63;15.60;;;;;;;;;;4972380;28;20027;-76
2022/07/22 06:03:52;;;;;;;27.20;21.60;;;;;;;;;;4972324;28;20023;-75
2022/07/22 06:06:17;;;;;;;27.73;16.88;;;;;;;;;;4974938;28;20109;-76
2022/07/22 06:08:43;;;;;;;27.10;16.42;;;;;;;;;;4969393;28;20066;-77
2022/07/22 06:11:08;;;;;;;25.33;16.35;;;;;;;;;;4954460;29;20193;-76
2022/07/22 06:13:34;;;;;;;26.55;16.98;;;;;;;;;;4962443;28;20046;-75
2022/07/22 06:16:00;;;;;;;29.77;16.35;;;;;;;;;;4972386;28;20031;-76
2022/07/22 06:18:26;;;;;;;25.75;16.83;;;;;;;;;;4971325;28;20225;-76
2022/07/22 06:20:52;;;;;;;26.52;16.17;;;;;;;;;;4973159;28;20391;-76
2022/07/22 06:23:17;;;;;;;26.50;17.67;;;;;;;;;;4966160;28;20121;-76
2022/07/22 06:25:43;;;;;;;27.23;16.33;;;;;;;;;;4955429;28;20046;-77
2022/07/22 06:28:11;;;;;;;22.90;16.45;;;;;;;;;;4967394;28;20031;-77
2022/07/22 06:30:36;;;;;;;26.00;17.20;;;;;;;;;;4968986;28;20037;-77
2022/07/22 06:33:02;;;;;;;38.17;18.48;;;;;;;;;;4968872;28;20118;-76
2022/07/22 06:35:28;;;;;;;24.08;16.20;;;;;;;;;;4970837;28;20030;-76
2022/07/22 06:37:55;;;;;;;22.63;15.98;;;;;;;;;;4971388;28;20563;-76
2022/07/22 06:40:21;;;;;;;24.02;15.55;;;;;;;;;;4963925;28;20038;-75
2022/07/22 06:42:46;;;;;;;24.80;17.20;;;;;;;;;;4980863;28;20081;-76
2022/07/22 06:45:12;;;;;;;22.48;16.50;;;;;;;;;;4968218;28;20027;-77
2022/07/22 06:47:37;;;;;;;25.95;17.88;;;;;;;;;;4965035;28;20082;-76
2022/07/22 06:50:05;;;;;;;26.02;17.25;;;;;;;;;;4963163;28;20435;-76
2022/07/22 06:52:33;;;;;;;22.15;15.30;;;;;;;;;;4966578;28;20410;-77
2022/07/22 06:55:05;;;;;;;26.25;18.92;;;;;;;;;;4967834;28;20027;-77
2022/07/22 06:57:30;;;;;;;21.92;16.42;;;;;;;;;;4969233;28;20037;-75
2022/07/22 06:59:56;;;;;;;24.55;16.15;;;;;;;;;;4967109;28;20030;-77
2022/07/22 07:02:22;;;;;;;21.90;15.27;;;;;;;;;;4968622;28;20041;-77
2022/07/22 07:04:47;;;;;;;25.05;16.70;;;;;;;;;;4984889;28;20022;-77
2022/07/22 07:07:13;;;;;;;46.42;22.80;;;;;;;;;;4968233;28;20255;-77
2022/07/22 07:09:38;;;;;;;25.70;15.98;;;;;;;;;;4966261;28;20043;-76
2022/07/22 07:12:04;;;;;;;26.10;15.52;;;;;;;;;;4970937;28;20608;-75
2022/07/22 07:14:30;;;;;;;26.02;16.02;;;;;;;;;;4968763;28;20039;-77
2022/07/22 07:16:55;;;;;;;24.67;15.70;;;;;;;;;;4970418;28;20092;-77
2022/07/22 07:19:21;;;;;;;18.95;15.40;;;;;;;;;;4968222;28;20030;-77
2022/07/22 07:21:46;;;;;;;24.23;15.60;;;;;;;;;;4971578;28;21538;-76
2022/07/22 07:24:12;;;;;;;20.75;15.52;;;;;;;;;;4970269;28;20057;-76
2022/07/22 07:26:38;;;;;;;22.60;15.55;;;;;;;;;;4971062;28;20058;-76
2022/07/22 07:29:03;;;;;;;19.85;15.43;;;;;;;;;;4973522;28;20027;-76
2022/07/22 07:31:30;;;;;;;26.13;15.90;;;;;;;;;;4968659;28;20031;-76
2022/07/22 07:33:57;;;;;;;24.58;15.93;;;;;;;;;;4968942;28;20395;-77
2022/07/22 07:36:22;;;;;;;20.30;15.55;;;;;;;;;;4963927;28;20542;-76
2022/07/22 07:38:48;;;;;;;21.45;14.65;;;;;;;;;;4968876;28;20027;-76
2022/07/22 07:41:14;;;;;;;24.35;14.20;;;;;;;;;;4967054;28;20035;-76
2022/07/22 07:43:40;;;;;;;21.05;14.90;;;;;;;;;;4966892;28;20522;-76
2022/07/22 07:46:05;;;;;;;28.48;15.68;;;;;;;;;;4967273;28;20031;-76
2022/07/22 07:48:31;;;;;;;24.23;14.88;;;;;;;;;;4970039;28;20022;-77
2022/07/22 07:50:56;;;;;;;24.98;15.57;;;;;;;;;;4967028;28;20180;-78
2022/07/22 07:53:22;;;;;;;17.90;14.52;;;;;;;;;;4966007;28;20039;-77
2022/07/22 07:55:48;;;;;;;22.05;15.55;;;;;;;;;;4968590;28;20153;-76
2022/07/22 07:58:14;;;;;;;31.70;16.42;;;;;;;;;;4961603;28;20031;-76
2022/07/22 08:00:42;;;;;;;22.00;14.52;;;;;;;;;;4967150;28;20427;-77
2022/07/22 08:03:07;;;;;;;24.05;15.10;;;;;;;;;;4962935;28;20396;-78
2022/07/22 08:05:33;;;;;;;21.95;14.93;;;;;;;;;;4966276;28;20125;-76
2022/07/22 08:08:00;;;;;;;28.85;15.07;;;;;;;;;;4964887;28;20144;-77
2022/07/22 08:10:26;;;;;;;27.65;15.55;;;;;;;;;;4968218;28;20374;-76
2022/07/22 08:12:53;;;;;;;20.65;13.82;;;;;;;;;;4966690;28;20041;-77
2022/07/22 08:15:20;;;;;;;19.30;13.48;;;;;;;;;;4965021;28;20499;-77
2022/07/22 08:17:45;;;;;;;17.33;12.40;;;;;;;;;;4963568;28;20035;-76
2022/07/22 08:20:11;;;;;;;21.25;13.95;;;;;;;;;;4960787;28;20490;-76
2022/07/22 08:22:37;;;;;;;17.00;12.40;;;;;;;;;;4968738;28;20100;-75
2022/07/22 08:25:03;;;;;;;18.83;12.80;;;;;;;;;;4968066;28;20030;-76
2022/07/22 08:27:32;;;;;;;18.00;13.13;;;;;;;;;;4973988;28;20379;-77
2022/07/22 08:29:57;;;;;;;22.00;14.00;;;;;;;;;;4989105;28;20043;-76
2022/07/22 08:32:23;;;;;;;21.42;13.02;;;;;;;;;;4965376;28;20094;-74
2022/07/22 08:34:50;;;;;;;21.48;14.63;;;;;;;;;;4971358;28;20105;-77
2022/07/22 08:37:15;;;;;;;29.85;13.55;;;;;;;;;;4965718;28;20056;-77
2022/07/22 08:39:41;;;;;;;16.85;12.40;;;;;;;;;;4965441;28;20498;-79
2022/07/22 08:42:07;;;;;;;18.25;12.05;;;;;;;;;;4968927;28;20110;-76
2022/07/22 08:44:33;;;;;;;15.60;12.32;;;;;;;;;;4967646;28;20135;-74
2022/07/22 08:47:00;;;;;;;15.13;10.95;;;;;;;;;;4965383;28;20537;-76
2022/07/22 08:49:26;;;;;;;15.90;10.60;;;;;;;;;;4966721;28;20023;-77
2022/07/22 08:51:52;;;;;;;13.77;10.05;;;;;;;;;;4964806;28;20051;-78
2022/07/22 08:54:17;;;;;;;15.75;10.82;;;;;;;;;;4971128;28;20046;-76
2022/07/22 08:56:48;;;;;;;13.63;10.60;;;;;;;;;;4967730;28;20549;-76
2022/07/22 08:59:14;;;;;;;13.80;10.05;;;;;;;;;;4966048;28;20027;-76
2022/07/22 09:02:02;;;;;;;13.90;9.68;;;;;;;;;;4968778;28;20788;-76
2022/07/22 09:04:28;;;;;;;13.20;9.10;;;;;;;;;;4972838;28;20034;-78
2022/07/22 09:06:53;;;;;;;12.88;8.70;;;;;;;;;;4967344;28;20650;-78
2022/07/22 09:09:35;;;;;;;13.18;9.65;;;;;;;;;;4976090;28;20029;-77
2022/07/22 09:12:08;;;;;;;12.48;7.93;;;;;;;;;;4983692;28;20046;-77
2022/07/22 09:14:49;;;;;;;11.70;7.75;;;;;;;;;;4971388;28;20058;-75
2022/07/22 09:17:28;;;;;;;13.13;8.27;;;;;;;;;;4965024;28;20035;-75
2022/07/22 09:19:56;;;;;;;18.48;7.80;;;;;;;;;;4983689;28;20561;-77
2022/07/22 09:22:39;;;;;;;12.98;8.68;;;;;;;;;;4957048;28;20510;-78
2022/07/22 09:25:21;;;;;;;14.10;8.18;;;;;;;;;;4983400;28;20019;-77
2022/07/22 09:27:48;;;;;;;14.30;7.97;;;;;;;;;;4968374;28;20387;-77
2022/07/22 09:30:18;;;;;;;11.70;7.55;;;;;;;;;;4984471;28;20387;-76
2022/07/22 09:32:45;;;;;;;11.60;7.38;;;;;;;;;;4972388;28;20038;-76
2022/07/22 09:35:11;;;;;;;8.70;7.30;;;;;;;;;;4970252;28;20415;-78
2022/07/22 09:37:58;;;;;;;9.15;7.15;;;;;;;;;;4969600;28;20553;-77
2022/07/22 09:40:26;;;;;;;9.23;6.88;;;;;;;;;;4967725;28;20410;-76
2022/07/22 09:42:58;;;;;;;10.07;6.95;;;;;;;;;;4966026;28;20031;-78
2022/07/22 09:45:26;;;;;;;9.75;6.82;;;;;;;;;;4988114;28;20031;-79
2022/07/22 09:47:54;;;;;;;8.57;7.30;;;;;;;;;;4972904;28;20066;-78
2022/07/22 09:50:29;;;;;;;11.32;7.72;;;;;;;;;;4971413;28;20039;-76
2022/07/22 09:52:58;;;;;;;11.95;7.95;;;;;;;;;;4969564;28;20466;-79
2022/07/22 09:55:25;;;;;;;16.10;8.30;;;;;;;;;;4966333;28;20530;-78
2022/07/22 09:57:53;;;;;;;13.20;7.97;;;;;;;;;;4968914;28;20125;-79
2022/07/22 10:00:21;;;;;;;18.70;8.77;;;;;;;;;;4987183;28;20444;-79
2022/07/22 10:02:51;;;;;;;9.55;8.02;;;;;;;;;;4974592;28;20390;-79
2022/07/22 10:05:23;;;;;;;13.80;8.40;;;;;;;;;;4967495;28;20437;-77
2022/07/22 10:07:49;;;;;;;12.93;8.70;;;;;;;;;;4972629;28;20030;-77
2022/07/22 10:10:17;;;;;;;13.85;8.02;;;;;;;;;;4984931;28;20388;-77
2022/07/22 10:12:44;;;;;;;10.02;7.82;;;;;;;;;;4972152;28;20037;-77
2022/07/22 10:15:11;;;;;;;14.75;8.15;;;;;;;;;;4963819;28;20616;-76
2022/07/22 10:17:41;;;;;;;9.70;8.00;;;;;;;;;;4968183;28;20038;-76
2022/07/22 10:20:08;;;;;;;10.37;8.50;;;;;;;;;;4966002;28;20034;-77
2022/07/22 10:22:42;;;;;;;13.82;9.07;;;;;;;;;;4968729;28;20613;-77
2022/07/22 10:25:11;;;;;;;12.45;8.30;;;;;;;;;;4971532;28;20045;-78
2022/07/22 10:27:53;;;;;;;9.65;8.65;;;;;;;;;;4972425;28;20053;-77
2022/07/22 10:30:22;;;;;;;12.45;8.80;;;;;;;;;;4972554;28;20030;-76
2022/07/22 10:33:09;;;;;;;11.93;8.77;;;;;;;;;;4970806;28;20503;-79
2022/07/22 10:35:38;;;;;;;13.18;9.02;;;;;;;;;;4968734;28;20131;-78
2022/07/22 10:38:07;;;;;;;14.63;9.43;;;;;;;;;;4966137;28;20034;-79
2022/07/22 10:40:53;;;;;;;12.75;9.77;;;;;;;;;;4974327;28;20062;-79
2022/07/22 10:43:21;;;;;;;16.15;9.45;;;;;;;;;;4968289;28;20121;-80
2022/07/22 10:46:06;;;;;;;16.48;9.63;;;;;;;;;;4969835;28;20026;-79
2022/07/22 10:48:34;;;;;;;11.38;8.40;;;;;;;;;;4987255;28;20038;-78
2022/07/22 10:51:11;;;;;;;12.65;8.25;;;;;;;;;;4970298;28;20055;-78
2022/07/22 10:54:00;;;;;;;12.25;8.55;;;;;;;;;;4968652;28;20037;-77
2022/07/22 10:56:29;;;;;;;9.90;8.55;;;;;;;;;;4978331;28;20037;-78
2022/07/22 10:58:56;;;;;;;12.55;8.63;;;;;;;;;;4968147;28;20513;-80
2022/07/22 11:01:26;;;;;;;10.32;8.40;;;;;;;;;;4970220;28;20066;-77
2022/07/22 11:03:52;;;;;;;9.80;8.70;;;;;;;;;;4974027;28;20018;-78
2022/07/22 11:06:21;;;;;;;15.18;8.23;;;;;;;;;;4969297;28;20034;-79
2022/07/22 11:08:50;;;;;;;12.05;9.75;;;;;;;;;;4968857;28;20034;-78
2022/07/22 11:11:16;;;;;;;17.35;9.25;;;;;;;;;;4971978;28;20475;-77
2022/07/22 11:13:44;;;;;;;16.88;9.02;;;;;;;;;;4969349;28;20030;-79
2022/07/22 11:16:17;;;;;;;12.95;9.52;;;;;;;;;;4968573;28;20030;-77
2022/07/22 11:18:56;;;;;;;10.48;9.10;;;;;;;;;;4967859;28;20039;-77
2022/07/22 11:21:24;;;;;;;12.40;9.05;;;;;;;;;;4965862;28;20030;-77
2022/07/22 11:23:52;;;;;;;11.65;8.80;;;;;;;;;;4984914;28;20525;-79
2022/07/22 11:26:27;;;;;;;11.55;8.60;;;;;;;;;;4968422;28;20092;-77
2022/07/22 11:28:54;;;;;;;10.95;8.73;;;;;;;;;;4959189;28;20482;-79
2022/07/22 11:31:20;;;;;;;13.70;8.13;;;;;;;;;;4971371;28;20031;-77
2022/07/22 11:33:46;;;;;;;10.77;8.20;;;;;;;;;;4986130;28;20124;-80
2022/07/22 11:36:12;;;;;;;10.88;9.02;;;;;;;;;;4985422;28;20034;-77
2022/07/22 11:38:49;;;;;;;11.20;8.45;;;;;;;;;;4972262;28;20033;-77
2022/07/22 11:41:18;;;;;;;11.82;8.13;;;;;;;;;;4954505;28;20357;-78
2022/07/22 11:43:49;;;;;;;10.95;7.63;;;;;;;;;;4968085;28;20027;-77
2022/07/22 11:46:17;;;;;;;11.80;8.10;;;;;;;;;;4976292;28;20049;-78
2022/07/22 11:48:43;;;;;;;12.15;8.32;;;;;;;;;;4985595;28;20097;-78
2022/07/22 11:51:14;;;;;;;12.15;7.95;;;;;;;;;;4970401;28;20507;-78
2022/07/22 11:53:39;;;;;;;;;;;;;;;;;;4972176;28;20093;-78
2022/07/22 11:56:07;;;;;;;10.95;7.28;;;;;;;;;;4969809;28;19918;-78
2022/07/22 11:58:39;;;;;;;15.88;8.07;;;;;;;;;;4969723;28;20035;-78
2022/07/22 12:01:07;;;;;;;12.15;7.97;;;;;;;;;;4986806;28;20026;-77
2022/07/22 12:03:35;;;;;;;14.77;7.80;;;;;;;;;;4977686;28;20493;-79
2022/07/22 12:06:02;;;;;;;15.35;8.32;;;;;;;;;;4963029;28;20143;-78
2022/07/22 12:08:28;;;;;;;9.20;7.70;;;;;;;;;;4969299;28;20037;-79
2022/07/22 12:10:57;;;;;;;10.32;8.18;;;;;;;;;;4970661;28;20027;-77
2022/07/22 12:13:29;;;;;;;11.20;7.35;;;;;;;;;;4969341;28;20022;-77
2022/07/22 12:15:54;;;;;;;11.68;7.95;;;;;;;;;;4969971;28;20118;-78
2022/07/22 12:18:22;;;;;;;9.55;6.90;;;;;;;;;;4971349;28;20117;-78
2022/07/22 12:20:49;;;;;;;8.32;7.45;;;;;;;;;;4962689;28;20034;-78
2022/07/22 12:23:16;;;;;;;9.13;6.90;;;;;;;;;;4981687;28;20022;-78
2022/07/22 12:25:55;;;;;;;11.75;6.60;;;;;;;;;;4974644;28;21033;-79
2022/07/22 12:28:21;;;;;;;13.52;6.80;;;;;;;;;;4966240;28;20038;-78
2022/07/22 12:30:49;;;;;;;7.93;6.90;;;;;;;;;;4964829;28;20034;-78
2022/07/22 12:33:19;;;;;;;13.95;7.57;;;;;;;;;;4972923;28;20479;-78
2022/07/22 12:36:02;;;;;;;11.23;7.68;;;;;;;;;;4975405;28;20471;-78
2022/07/22 12:38:28;;;;;;;12.75;6.63;;;;;;;;;;4975465;28;20022;-76
2022/07/22 12:40:54;;;;;;;10.90;6.68;;;;;;;;;;4971798;28;20031;-78
2022/07/22 12:43:25;;;;;;;6.85;6.15;;;;;;;;;;4972189;28;20165;-78
2022/07/22 12:45:51;;;;;;;14.20;7.47;;;;;;;;;;4974104;28;20484;-77
2022/07/22 12:48:17;;;;;;;12.57;6.97;;;;;;;;;;4963998;28;20042;-78
2022/07/22 12:50:57;;;;;;;10.23;7.22;;;;;;;;;;4974769;28;20026;-79
2022/07/22 12:53:25;;;;;;;13.60;7.60;;;;;;;;;;4959067;28;20054;-80
2022/07/22 12:55:55;;;;;;;9.00;7.07;;;;;;;;;;4974465;28;20491;-79
2022/07/22 12:58:23;;;;;;;9.83;7.03;;;;;;;;;;4975652;28;20042;-79
2022/07/22 13:00:56;;;;;;;11.90;7.47;;;;;;;;;;4985938;28;20035;-78
2022/07/22 13:03:23;;;;;;;8.75;7.35;;;;;;;;;;4970743;28;20542;-77
2022/07/22 13:05:50;;;;;;;7.57;6.35;;;;;;;;;;4973498;28;20023;-78
2022/07/22 13:08:16;;;;;;;10.75;6.50;;;;;;;;;;4962076;28;20027;-79
2022/07/22 13:10:43;;;;;;;11.75;7.07;;;;;;;;;;4972277;28;20038;-78
2022/07/22 13:13:08;;;;;;;13.50;6.75;;;;;;;;;;4990710;28;20121;-77
2022/07/22 13:15:34;;;;;;;11.55;6.82;;;;;;;;;;4975385;28;20495;-77
2022/07/22 13:18:00;;;;;;;9.55;6.90;;;;;;;;;;4974117;28;20029;-77
2022/07/22 13:20:27;;;;;;;8.20;6.43;;;;;;;;;;4989282;28;20033;-79
2022/07/22 13:22:52;;;;;;;7.70;6.55;;;;;;;;;;4973890;28;20023;-78
2022/07/22 13:25:21;;;;;;;10.75;6.85;;;;;;;;;;4974640;28;20029;-79
2022/07/22 13:27:46;;;;;;;7.90;6.90;;;;;;;;;;4974434;28;20510;-77
2022/07/22 13:30:12;;;;;;;10.68;7.00;;;;;;;;;;4974302;28;20054;-78
2022/07/22 13:32:38;;;;;;;10.77;7.28;;;;;;;;;;4989254;28;20065;-78
2022/07/22 13:35:04;;;;;;;10.00;7.10;;;;;;;;;;4970548;28;20047;-78
2022/07/22 13:37:29;;;;;;;12.93;7.55;;;;;;;;;;4954963;28;20049;-78
2022/07/22 13:39:55;;;;;;;13.13;8.02;;;;;;;;;;4960953;28;20039;-79
2022/07/22 13:42:20;;;;;;;10.35;7.30;;;;;;;;;;4971234;28;20369;-78
2022/07/22 13:44:48;;;;;;;10.57;7.30;;;;;;;;;;4967279;28;20031;-78
2022/07/22 13:47:13;;;;;;;9.48;6.88;;;;;;;;;;4969447;28;20027;-78
2022/07/22 13:49:39;;;;;;;8.23;6.80;;;;;;;;;;4973926;28;20434;-79
2022/07/22 13:52:05;;;;;;;7.78;6.85;;;;;;;;;;4972729;28;20138;-78
2022/07/22 13:54:31;;;;;;;8.98;6.90;;;;;;;;;;4989078;28;20035;-79
2022/07/22 13:56:59;;;;;;;10.90;7.10;;;;;;;;;;4973022;28;20062;-78
2022/07/22 13:59:25;;;;;;;11.05;7.82;;;;;;;;;;4974381;28;20030;-79
2022/07/22 14:01:51;;;;;;;7.78;6.38;;;;;;;;;;4973026;28;20057;-77
2022/07/22 14:04:17;;;;;;;11.23;6.82;;;;;;;;;;4973044;28;20076;-77
2022/07/22 14:06:42;;;;;;;7.75;6.60;;;;;;;;;;4974128;28;20033;-79
2022/07/22 14:09:08;;;;;;;9.00;7.03;;;;;;;;;;4973732;28;20035;-79
2022/07/22 14:11:35;;;;;;;9.98;6.22;;;;;;;;;;4972348;28;20054;-78
2022/07/22 14:14:00;;;;;;;11.30;6.60;;;;;;;;;;4974032;28;20538;-78
2022/07/22 14:16:35;;;;;;;8.57;6.93;;;;;;;;;;4958606;28;20031;-78
2022/07/22 14:19:03;;;;;;;8.00;6.68;;;;;;;;;;4972237;28;20512;-78
2022/07/22 14:21:30;;;;;;;10.10;6.57;;;;;;;;;;4973972;28;20037;-79
2022/07/22 14:23:57;;;;;;;7.82;6.75;;;;;;;;;;4989761;28;20019;-78